Time;durP1;ratioP1;P1;durP2;ratioP2;P2;SDS_P1;SDS_P2;PMS_P1;PMS_P2;Temp;Humidity;BMP_temperature;BMP_pressure;BME280_temperature;BME280_humidity;BME280_pressure;Samples;Min_cycle;Max_cycle;Signal;HPM_P1;HPM_P2
2022/07/08 00:01:34;;;;;;;2.42;1.20;;;21.00;99.90;;;;;;4995655;28;20077;-75
2022/07/08 00:04:00;;;;;;;2.75;1.10;;;20.90;99.90;;;;;;4993375;28;20050;-75
2022/07/08 00:06:26;;;;;;;1.10;1.00;;;20.90;99.90;;;;;;4988796;28;20525;-75
2022/07/08 00:08:52;;;;;;;2.60;0.98;;;20.80;99.90;;;;;;4991983;28;20125;-75
2022/07/08 00:11:17;;;;;;;1.10;0.98;;;20.80;99.90;;;;;;4994526;28;20490;-75
2022/07/08 00:13:43;;;;;;;3.42;1.02;;;20.70;99.90;;;;;;4993107;28;20396;-75
2022/07/08 00:16:09;;;;;;;1.00;0.93;;;20.80;99.90;;;;;;4990546;28;20414;-75
2022/07/08 00:18:35;;;;;;;0.95;0.88;;;20.70;99.90;;;;;;4993055;28;20022;-75
2022/07/08 00:21:00;;;;;;;1.52;0.98;;;20.70;99.90;;;;;;4991720;28;20038;-76
2022/07/08 00:23:26;;;;;;;0.90;0.90;;;20.80;99.90;;;;;;4992047;28;20041;-75
2022/07/08 00:25:52;;;;;;;1.02;0.80;;;20.70;99.90;;;;;;4992413;28;20037;-76
2022/07/08 00:28:17;;;;;;;0.95;0.80;;;20.80;99.90;;;;;;4991870;28;20034;-76
2022/07/08 00:30:43;;;;;;;1.63;1.17;;;20.80;99.90;;;;;;4994849;28;20033;-75
2022/07/08 00:33:09;;;;;;;1.15;1.00;;;20.80;99.90;;;;;;4991976;28;20033;-76
2022/07/08 00:35:34;;;;;;;0.90;0.90;;;20.90;99.90;;;;;;4992276;28;20037;-76
2022/07/08 00:38:01;;;;;;;1.35;0.90;;;20.90;99.90;;;;;;4992965;28;20050;-75
2022/07/08 00:40:27;;;;;;;1.02;1.02;;;20.90;99.90;;;;;;4992084;28;20413;-74
2022/07/08 00:42:53;;;;;;;1.50;1.20;;;21.00;99.90;;;;;;4992980;28;20022;-75
2022/07/08 00:45:18;;;;;;;1.08;0.95;;;21.00;99.90;;;;;;4991896;28;20537;-75
2022/07/08 00:47:44;;;;;;;1.13;1.10;;;21.00;99.90;;;;;;4992625;28;20053;-75
2022/07/08 00:50:13;;;;;;;3.58;1.17;;;20.90;99.90;;;;;;4990748;28;20421;-75
2022/07/08 00:52:39;;;;;;;1.15;1.08;;;20.90;99.90;;;;;;4989456;28;20026;-75
2022/07/08 00:55:07;;;;;;;2.10;1.13;;;20.90;99.90;;;;;;4990360;28;20026;-75
2022/07/08 00:57:35;;;;;;;1.30;1.20;;;20.90;99.90;;;;;;4989454;28;20023;-75
2022/07/08 01:00:01;;;;;;;2.45;1.35;;;20.90;99.90;;;;;;4989547;28;20034;-75
2022/07/08 01:02:27;;;;;;;3.33;1.40;;;20.80;99.90;;;;;;4994285;28;20129;-75
2022/07/08 01:04:52;;;;;;;1.00;1.00;;;20.80;99.90;;;;;;4991751;28;20118;-74
2022/07/08 01:07:19;;;;;;;1.20;1.00;;;20.80;99.90;;;;;;4992396;28;20069;-75
2022/07/08 01:09:44;;;;;;;1.50;1.40;;;20.80;99.90;;;;;;4990383;28;20022;-75
2022/07/08 01:12:11;;;;;;;1.10;1.00;;;20.80;99.90;;;;;;4994670;28;20056;-74
2022/07/08 01:14:37;;;;;;;3.92;1.17;;;20.80;99.90;;;;;;4991806;28;20026;-75
2022/07/08 01:17:03;;;;;;;2.45;1.13;;;20.80;99.90;;;;;;4990479;28;20029;-75
2022/07/08 01:19:29;;;;;;;1.52;1.20;;;20.80;99.90;;;;;;4992013;28;20072;-75
2022/07/08 01:21:55;;;;;;;2.80;1.15;;;20.70;99.90;;;;;;4990537;28;20486;-75
2022/07/08 01:24:21;;;;;;;2.17;1.50;;;20.80;99.90;;;;;;4991952;28;20034;-75
2022/07/08 01:26:47;;;;;;;1.23;1.15;;;20.70;99.90;;;;;;4991293;28;20045;-75
2022/07/08 01:29:14;;;;;;;3.83;1.20;;;20.70;99.90;;;;;;4976794;28;20037;-74
2022/07/08 01:31:40;;;;;;;5.10;1.20;;;20.70;99.90;;;;;;4993128;28;20501;-75
2022/07/08 01:34:06;;;;;;;2.60;1.10;;;20.70;99.90;;;;;;4991723;28;20048;-75
2022/07/08 01:36:32;;;;;;;1.15;1.05;;;20.70;99.90;;;;;;4991334;28;20033;-75
2022/07/08 01:38:57;;;;;;;1.27;1.00;;;20.70;99.90;;;;;;4991846;28;20101;-75
2022/07/08 01:41:23;;;;;;;3.83;1.33;;;20.70;99.90;;;;;;4992835;28;20060;-75
2022/07/08 01:43:50;;;;;;;2.15;1.30;;;20.70;99.90;;;;;;4991568;28;20045;-75
2022/07/08 01:46:16;;;;;;;1.70;1.20;;;20.70;99.90;;;;;;4990104;28;20072;-75
2022/07/08 01:48:42;;;;;;;4.25;1.40;;;20.70;99.90;;;;;;4990498;28;20054;-74
2022/07/08 01:51:08;;;;;;;2.08;1.02;;;20.80;99.90;;;;;;4991344;28;20061;-75
2022/07/08 01:53:33;;;;;;;0.90;0.90;;;20.80;99.90;;;;;;4991461;28;20122;-76
2022/07/08 01:55:59;;;;;;;2.53;1.27;;;20.70;99.90;;;;;;4991220;28;20022;-76
2022/07/08 01:58:25;;;;;;;1.23;1.10;;;20.80;99.90;;;;;;4991755;28;20030;-77
2022/07/08 02:00:51;;;;;;;1.40;1.30;;;20.70;99.90;;;;;;4993115;28;20346;-76
2022/07/08 02:03:17;;;;;;;1.45;1.10;;;20.70;99.90;;;;;;4990514;28;20089;-76
2022/07/08 02:05:42;;;;;;;1.30;1.20;;;20.60;99.90;;;;;;4989458;28;20031;-76
2022/07/08 02:08:09;;;;;;;1.30;1.20;;;20.60;99.90;;;;;;4991864;28;20030;-75
2022/07/08 02:13:19;;;;;;;4.47;1.27;;;20.60;99.90;;;;;;4984670;28;20022;-76
2022/07/08 02:15:45;;;;;;;1.95;1.15;;;20.60;99.90;;;;;;4990672;28;20038;-76
2022/07/08 02:18:12;;;;;;;1.60;1.20;;;20.60;99.90;;;;;;4991685;28;20026;-76
2022/07/08 02:20:38;;;;;;;1.00;1.00;;;20.60;99.90;;;;;;4991186;28;20478;-76
2022/07/08 02:23:03;;;;;;;1.30;1.20;;;20.60;99.90;;;;;;4991413;28;20397;-76
2022/07/08 02:25:29;;;;;;;1.40;1.13;;;20.60;99.90;;;;;;4985848;28;20030;-76
2022/07/08 02:27:55;;;;;;;1.52;1.25;;;20.60;99.90;;;;;;4991465;28;20101;-76
2022/07/08 02:30:20;;;;;;;1.42;1.10;;;20.60;99.90;;;;;;4990940;28;20053;-76
2022/07/08 02:32:46;;;;;;;2.08;1.33;;;20.60;99.90;;;;;;4993647;28;20030;-76
2022/07/08 02:35:12;;;;;;;1.48;1.10;;;20.60;99.90;;;;;;4990975;28;20049;-76
2022/07/08 02:37:37;;;;;;;1.60;1.20;;;20.60;99.90;;;;;;4990047;28;20023;-76
2022/07/08 02:40:04;;;;;;;2.55;1.42;;;20.60;99.90;;;;;;4992865;28;20072;-76
2022/07/08 02:42:29;;;;;;;1.58;1.48;;;20.60;99.90;;;;;;4997878;28;20113;-76
2022/07/08 02:44:56;;;;;;;2.25;1.50;;;20.60;99.90;;;;;;4994249;28;20476;-76
2022/07/08 02:47:21;;;;;;;1.98;1.27;;;20.60;99.90;;;;;;4991425;28;20038;-75
2022/07/08 02:49:47;;;;;;;1.20;1.20;;;20.50;99.90;;;;;;4994269;28;20521;-76
2022/07/08 02:52:13;;;;;;;1.52;1.40;;;20.50;99.90;;;;;;4991738;28;20030;-76
2022/07/08 02:54:39;;;;;;;1.67;1.58;;;20.50;99.90;;;;;;4994557;28;20444;-75
2022/07/08 02:57:04;;;;;;;2.10;1.77;;;20.40;99.90;;;;;;4994528;28;20073;-76
2022/07/08 02:59:30;;;;;;;1.92;1.55;;;20.40;99.90;;;;;;4994417;28;20109;-76
2022/07/08 03:01:56;;;;;;;2.17;1.45;;;20.50;99.90;;;;;;4996899;28;20042;-77
2022/07/08 03:04:22;;;;;;;1.65;1.55;;;20.50;99.90;;;;;;4993189;28;20046;-76
2022/07/08 03:06:48;;;;;;;2.25;2.03;;;20.50;99.90;;;;;;4994180;28;20536;-76
2022/07/08 03:09:14;;;;;;;1.80;1.70;;;20.50;99.90;;;;;;4994392;28;20121;-76
2022/07/08 03:11:39;;;;;;;1.67;1.58;;;20.50;99.90;;;;;;4996910;28;20026;-74
2022/07/08 03:14:05;;;;;;;1.75;1.65;;;20.50;99.90;;;;;;4994140;28;20053;-75
2022/07/08 03:16:31;;;;;;;2.72;1.80;;;20.50;99.90;;;;;;4992848;28;20061;-76
2022/07/08 03:18:56;;;;;;;1.52;1.40;;;20.50;99.90;;;;;;4993097;28;20033;-75
2022/07/08 03:21:22;;;;;;;2.17;1.77;;;20.50;99.90;;;;;;4993987;28;20117;-75
2022/07/08 03:23:48;;;;;;;1.95;1.70;;;20.50;99.90;;;;;;4994053;28;20022;-76
2022/07/08 03:26:14;;;;;;;3.33;1.80;;;20.50;99.90;;;;;;4992494;28;20153;-75
2022/07/08 03:28:39;;;;;;;4.53;1.70;;;20.40;99.90;;;;;;4994031;28;20054;-76
2022/07/08 03:31:05;;;;;;;2.05;1.77;;;20.40;99.90;;;;;;4996333;28;20027;-76
2022/07/08 03:33:31;;;;;;;2.10;1.90;;;20.40;99.90;;;;;;4992886;28;20033;-75
2022/07/08 03:35:56;;;;;;;1.63;1.52;;;20.30;99.90;;;;;;4986872;28;20026;-75
2022/07/08 03:38:22;;;;;;;3.88;1.48;;;20.40;99.90;;;;;;4994192;28;20062;-77
2022/07/08 03:43:32;;;;;;;1.50;1.40;;;20.30;99.90;;;;;;4994021;28;20041;-75
2022/07/08 03:45:58;;;;;;;1.80;1.58;;;20.40;99.90;;;;;;4993345;28;20022;-76
2022/07/08 03:48:23;;;;;;;1.70;1.60;;;20.40;99.90;;;;;;4993954;28;20031;-75
2022/07/08 03:50:49;;;;;;;1.70;1.60;;;20.40;99.90;;;;;;4992723;28;20746;-76
2022/07/08 03:53:15;;;;;;;1.80;1.70;;;20.50;99.90;;;;;;4993963;28;20030;-75
2022/07/08 03:55:40;;;;;;;2.13;1.50;;;20.50;99.90;;;;;;4993165;28;20158;-75
2022/07/08 03:58:06;;;;;;;2.42;1.60;;;20.50;99.90;;;;;;4993737;28;20481;-75
2022/07/08 04:00:32;;;;;;;1.73;1.63;;;20.50;99.90;;;;;;4994838;28;20496;-75
2022/07/08 04:02:57;;;;;;;2.13;1.67;;;20.50;99.90;;;;;;4994175;28;20042;-75
2022/07/08 04:05:23;;;;;;;1.70;1.40;;;20.50;99.90;;;;;;4992859;28;20038;-75
2022/07/08 04:07:49;;;;;;;2.88;1.20;;;20.50;99.90;;;;;;4992208;28;20121;-76
2022/07/08 04:10:15;;;;;;;1.58;1.40;;;20.60;99.90;;;;;;4992897;28;20032;-76
2022/07/08 04:12:40;;;;;;;1.45;1.35;;;20.60;99.90;;;;;;4996333;28;20023;-76
2022/07/08 04:15:07;;;;;;;2.28;1.30;;;20.70;99.90;;;;;;4992571;28;20041;-75
2022/07/08 04:17:34;;;;;;;2.08;1.10;;;20.70;99.90;;;;;;4993537;28;20025;-76
2022/07/08 04:20:00;;;;;;;1.77;1.40;;;20.70;99.90;;;;;;4992667;28;20038;-77
2022/07/08 04:22:25;;;;;;;1.52;1.42;;;20.80;99.90;;;;;;4993376;28;20367;-76
2022/07/08 04:24:51;;;;;;;1.30;1.20;;;20.80;99.90;;;;;;4991286;28;20069;-76
2022/07/08 04:27:17;;;;;;;1.10;1.00;;;20.90;99.90;;;;;;4993145;28;20136;-76
2022/07/08 04:29:42;;;;;;;1.15;1.10;;;21.00;99.90;;;;;;4991453;28;20030;-76
2022/07/08 04:32:08;;;;;;;1.40;1.30;;;21.00;99.90;;;;;;4995569;28;20393;-76
2022/07/08 04:34:34;;;;;;;3.10;1.20;;;21.10;99.90;;;;;;4991493;28;20049;-76
2022/07/08 04:36:59;;;;;;;3.13;1.48;;;21.10;99.90;;;;;;4992576;28;20027;-76
2022/07/08 04:39:25;;;;;;;1.65;1.23;;;21.20;99.90;;;;;;4992552;28;20540;-75
2022/07/08 04:41:51;;;;;;;0.93;0.90;;;21.20;99.90;;;;;;4995255;28;20034;-76
2022/07/08 04:44:17;;;;;;;1.63;1.17;;;21.30;99.90;;;;;;4992380;28;20042;-75
2022/07/08 04:46:42;;;;;;;1.13;0.90;;;21.30;99.90;;;;;;4991165;28;20041;-76
2022/07/08 04:49:08;;;;;;;6.95;1.20;;;21.40;99.90;;;;;;4992610;28;20080;-76
2022/07/08 04:51:34;;;;;;;2.35;1.10;;;21.50;99.90;;;;;;4991091;28;20033;-76
2022/07/08 04:54:00;;;;;;;1.25;1.15;;;21.50;99.90;;;;;;4992437;28;20022;-76
2022/07/08 04:56:25;;;;;;;1.50;1.40;;;21.50;99.90;;;;;;4992166;28;20113;-75
2022/07/08 04:58:51;;;;;;;1.23;1.17;;;21.50;99.90;;;;;;4992466;28;20433;-74
2022/07/08 05:01:18;;;;;;;1.55;1.42;;;21.50;99.90;;;;;;4993863;28;20457;-75
2022/07/08 05:03:44;;;;;;;1.10;1.10;;;21.60;99.90;;;;;;4992080;28;20117;-74
2022/07/08 05:06:09;;;;;;;3.40;1.20;;;21.60;99.90;;;;;;4991951;28;20041;-76
2022/07/08 05:08:35;;;;;;;1.90;1.13;;;21.60;99.90;;;;;;4990940;28;20026;-76
2022/07/08 05:11:01;;;;;;;1.27;1.17;;;21.70;99.90;;;;;;4994750;28;20437;-76
2022/07/08 05:13:26;;;;;;;1.20;1.10;;;21.70;99.90;;;;;;4992492;28;20031;-76
2022/07/08 05:15:52;;;;;;;3.63;1.20;;;21.70;99.90;;;;;;4991340;28;20027;-77
2022/07/08 05:18:18;;;;;;;2.05;1.25;;;21.80;99.90;;;;;;4991023;28;20030;-77
2022/07/08 05:20:44;;;;;;;1.55;1.20;;;21.80;99.90;;;;;;4991508;28;20381;-75
2022/07/08 05:23:09;;;;;;;1.42;1.30;;;21.80;99.90;;;;;;4983947;28;20031;-77
2022/07/08 05:25:35;;;;;;;4.72;1.30;;;21.90;99.90;;;;;;4990196;28;20437;-76
2022/07/08 05:28:01;;;;;;;1.42;1.33;;;21.90;99.90;;;;;;4992122;28;20037;-76
2022/07/08 05:30:26;;;;;;;2.38;1.08;;;22.00;99.90;;;;;;4991239;28;20049;-76
2022/07/08 05:32:52;;;;;;;1.35;1.25;;;22.00;99.90;;;;;;4993422;28;20019;-75
2022/07/08 05:35:18;;;;;;;1.35;1.10;;;22.00;99.90;;;;;;4990066;28;20034;-76
2022/07/08 05:37:44;;;;;;;1.73;1.13;;;22.00;99.90;;;;;;4991944;28;20045;-76
2022/07/08 05:40:11;;;;;;;1.33;1.23;;;22.00;99.90;;;;;;4991387;28;20089;-76
2022/07/08 05:42:37;;;;;;;2.80;1.25;;;22.00;99.90;;;;;;4991412;28;20105;-75
2022/07/08 05:45:04;;;;;;;3.05;1.05;;;22.00;99.90;;;;;;4990875;28;20036;-75
2022/07/08 05:47:30;;;;;;;2.28;1.20;;;22.10;99.90;;;;;;4990641;28;20043;-77
2022/07/08 05:49:55;;;;;;;3.42;1.20;;;22.10;99.90;;;;;;4989690;28;20112;-77
2022/07/08 05:52:21;;;;;;;0.90;0.90;;;22.20;99.90;;;;;;4989897;28;20018;-78
2022/07/08 05:54:47;;;;;;;1.30;1.20;;;22.20;99.90;;;;;;4991330;28;20081;-77
2022/07/08 05:57:14;;;;;;;1.30;1.20;;;22.20;99.90;;;;;;4987821;28;20154;-75
2022/07/08 05:59:40;;;;;;;4.32;1.02;;;22.20;99.90;;;;;;4990957;28;20367;-75
2022/07/08 06:02:06;;;;;;;1.23;0.93;;;22.30;99.90;;;;;;4994261;28;20054;-76
2022/07/08 06:04:32;;;;;;;2.50;1.10;;;22.30;99.90;;;;;;4991390;28;20030;-77
2022/07/08 06:06:58;;;;;;;2.13;0.90;;;22.30;99.90;;;;;;4989943;28;20109;-77
2022/07/08 06:09:24;;;;;;;2.78;1.20;;;22.40;99.90;;;;;;4991665;28;20023;-78
2022/07/08 06:11:51;;;;;;;1.05;0.98;;;22.40;99.90;;;;;;4991448;28;20117;-77
2022/07/08 06:14:17;;;;;;;1.25;1.00;;;22.50;99.90;;;;;;4991023;28;20022;-76
2022/07/08 06:16:42;;;;;;;1.13;0.80;;;22.50;99.90;;;;;;4994046;28;20027;-77
2022/07/08 06:19:08;;;;;;;0.88;0.88;;;22.60;99.90;;;;;;4994132;28;20534;-78
2022/07/08 06:21:34;;;;;;;2.55;0.95;;;22.70;99.90;;;;;;4994210;28;20117;-77
2022/07/08 06:24:00;;;;;;;2.28;0.93;;;22.70;99.90;;;;;;4994047;28;20549;-77
2022/07/08 06:26:26;;;;;;;0.80;0.80;;;22.70;99.90;;;;;;4995080;28;20035;-77
2022/07/08 06:28:52;;;;;;;1.30;0.98;;;22.70;99.90;;;;;;4993991;28;20379;-76
2022/07/08 06:31:18;;;;;;;0.85;0.85;;;22.80;99.90;;;;;;4986275;28;20045;-77
2022/07/08 06:33:43;;;;;;;1.02;0.90;;;22.80;99.90;;;;;;4991009;28;20022;-76
2022/07/08 06:36:09;;;;;;;0.80;0.80;;;22.80;99.90;;;;;;4995142;28;20022;-77
2022/07/08 06:38:35;;;;;;;1.00;1.00;;;22.90;99.90;;;;;;4995128;28;20052;-78
2022/07/08 06:41:00;;;;;;;1.40;1.00;;;22.90;99.90;;;;;;4996604;28;20477;-86
2022/07/08 06:43:26;;;;;;;1.48;0.70;;;22.90;99.90;;;;;;4995016;28;20026;-79
2022/07/08 06:45:52;;;;;;;1.17;0.80;;;22.90;99.90;;;;;;4985904;28;20027;-86
2022/07/08 06:48:18;;;;;;;3.08;0.80;;;23.00;99.90;;;;;;4994297;28;20430;-77
2022/07/08 06:50:44;;;;;;;1.15;0.80;;;23.00;99.90;;;;;;4993229;28;20026;-76
2022/07/08 06:53:09;;;;;;;1.65;0.90;;;23.10;99.90;;;;;;4982131;28;20027;-77
2022/07/08 06:55:35;;;;;;;1.63;0.93;;;23.10;99.90;;;;;;4990370;28;20477;-78
2022/07/08 06:58:01;;;;;;;1.52;0.80;;;23.10;99.90;;;;;;4994868;28;20026;-76
2022/07/08 07:00:27;;;;;;;0.70;0.70;;;23.20;99.90;;;;;;4994043;28;20065;-76
2022/07/08 07:02:54;;;;;;;1.98;0.80;;;23.30;99.90;;;;;;4993944;28;20065;-77
2022/07/08 07:05:20;;;;;;;0.70;0.70;;;23.30;99.90;;;;;;4992034;28;20393;-76
2022/07/08 07:07:46;;;;;;;0.75;0.75;;;23.30;99.90;;;;;;4991338;28;20042;-76
2022/07/08 07:10:12;;;;;;;0.65;0.65;;;23.30;99.90;;;;;;4992336;28;20106;-76
2022/07/08 07:12:38;;;;;;;0.70;0.70;;;23.30;99.90;;;;;;4992179;28;20025;-75
2022/07/08 07:15:04;;;;;;;0.77;0.77;;;23.40;99.90;;;;;;4990090;28;20481;-77
2022/07/08 07:17:30;;;;;;;2.97;1.10;;;23.40;99.90;;;;;;4994204;28;20026;-76
2022/07/08 07:19:57;;;;;;;0.77;0.77;;;23.50;99.90;;;;;;4992413;28;20084;-76
2022/07/08 07:22:23;;;;;;;3.53;1.10;;;23.50;99.90;;;;;;4988674;28;20506;-75
2022/07/08 07:24:49;;;;;;;1.80;1.00;;;23.50;99.90;;;;;;4992271;28;20265;-75
2022/07/08 07:27:15;;;;;;;1.63;0.90;;;23.50;99.90;;;;;;4992402;28;20034;-74
2022/07/08 07:29:40;;;;;;;2.20;0.75;;;23.50;99.90;;;;;;4992812;28;20026;-75
2022/07/08 07:32:06;;;;;;;0.95;0.90;;;23.60;99.90;;;;;;4995528;28;20500;-75
2022/07/08 07:34:32;;;;;;;2.38;0.70;;;23.70;99.90;;;;;;4993905;28;20328;-75
2022/07/08 07:36:58;;;;;;;3.90;0.80;;;23.70;99.90;;;;;;4993575;28;20105;-75
2022/07/08 07:39:25;;;;;;;0.63;0.63;;;23.80;99.90;;;;;;4993828;28;20042;-75
2022/07/08 07:41:51;;;;;;;0.80;0.80;;;23.80;99.90;;;;;;4995115;28;20022;-74
2022/07/08 07:44:16;;;;;;;0.63;0.60;;;23.80;99.90;;;;;;4993660;28;20037;-74
2022/07/08 07:46:42;;;;;;;0.65;0.50;;;23.90;99.90;;;;;;4993570;28;20046;-74
2022/07/08 07:49:08;;;;;;;0.60;0.60;;;23.90;99.90;;;;;;4992552;28;20433;-74
2022/07/08 07:51:34;;;;;;;0.80;0.80;;;24.00;99.90;;;;;;4993511;28;20113;-74
2022/07/08 07:53:59;;;;;;;1.23;0.60;;;24.00;99.90;;;;;;4992221;28;20032;-76
2022/07/08 07:56:25;;;;;;;1.23;0.50;;;24.00;99.90;;;;;;4993107;28;20018;-77
2022/07/08 07:58:51;;;;;;;1.75;0.60;;;24.00;99.90;;;;;;4992162;28;20034;-76
2022/07/08 08:01:16;;;;;;;1.95;0.60;;;24.10;99.90;;;;;;4995686;28;20062;-76
2022/07/08 08:03:42;;;;;;;0.47;0.43;;;24.20;99.90;;;;;;4993344;28;20034;-79
2022/07/08 08:06:08;;;;;;;0.50;0.50;;;24.30;99.90;;;;;;4992924;28;20030;-78
2022/07/08 08:08:35;;;;;;;1.90;0.77;;;24.30;99.90;;;;;;4993551;28;20031;-77
2022/07/08 08:11:02;;;;;;;0.57;0.57;;;24.40;99.90;;;;;;4995715;28;20024;-78
2022/07/08 08:13:28;;;;;;;0.73;0.60;;;24.50;99.90;;;;;;4993777;28;20469;-77
2022/07/08 08:15:55;;;;;;;0.70;0.70;;;24.50;99.90;;;;;;4992088;28;20102;-78
2022/07/08 08:18:20;;;;;;;0.60;0.60;;;24.60;99.90;;;;;;4990992;28;20038;-77
2022/07/08 08:20:47;;;;;;;8.70;0.70;;;24.70;99.90;;;;;;4989929;28;20029;-76
2022/07/08 08:23:12;;;;;;;0.55;0.52;;;24.80;99.90;;;;;;4991546;28;20065;-76
2022/07/08 08:25:38;;;;;;;0.65;0.63;;;24.80;99.90;;;;;;4990886;28;20108;-75
2022/07/08 08:28:05;;;;;;;1.75;0.60;;;24.90;99.90;;;;;;4987158;28;20033;-75
2022/07/08 08:30:31;;;;;;;2.15;0.50;;;24.90;99.90;;;;;;4994199;28;20038;-75
2022/07/08 08:32:57;;;;;;;1.05;0.60;;;24.90;99.90;;;;;;4991549;28;20157;-76
2022/07/08 08:35:24;;;;;;;2.90;0.50;;;25.00;99.90;;;;;;4991155;28;20026;-76
2022/07/08 08:37:49;;;;;;;0.73;0.63;;;25.00;99.90;;;;;;4990618;28;20028;-75
2022/07/08 08:40:15;;;;;;;0.52;0.40;;;25.10;99.90;;;;;;4990164;28;20034;-75
2022/07/08 08:42:42;;;;;;;0.77;0.30;;;25.10;99.90;;;;;;4993037;28;20026;-75
2022/07/08 08:45:11;;;;;;;0.65;0.52;;;25.20;99.90;;;;;;4988867;28;20058;-77
2022/07/08 08:47:37;;;;;;;0.40;0.40;;;25.10;99.90;;;;;;4992801;28;20030;-77
2022/07/08 08:52:54;;;;;;;0.43;0.30;;;25.30;99.90;;;;;;4991071;28;20037;-75
2022/07/08 08:55:26;;;;;;;2.55;0.57;;;25.30;99.90;;;;;;4989491;28;20023;-74
2022/07/08 08:57:57;;;;;;;0.85;0.38;;;25.30;99.90;;;;;;4991850;28;20026;-75
2022/07/08 09:00:25;;;;;;;0.40;0.40;;;25.40;99.90;;;;;;4987941;28;20122;-75
2022/07/08 09:02:52;;;;;;;0.65;0.50;;;25.40;99.90;;;;;;4991002;28;20050;-75
2022/07/08 09:05:20;;;;;;;0.50;0.50;;;25.40;99.90;;;;;;4989503;28;20092;-75
2022/07/08 09:07:45;;;;;;;0.63;0.40;;;25.50;99.90;;;;;;4990254;28;20039;-74
2022/07/08 09:10:13;;;;;;;0.40;0.40;;;25.60;99.80;;;;;;4990803;28;20022;-75
2022/07/08 09:12:39;;;;;;;4.07;0.63;;;25.70;99.80;;;;;;4982061;28;20027;-75
2022/07/08 09:15:05;;;;;;;0.30;0.30;;;25.70;99.90;;;;;;4983798;28;20037;-75
2022/07/08 09:17:31;;;;;;;2.42;0.45;;;25.80;99.90;;;;;;4992127;28;20030;-75
2022/07/08 09:19:56;;;;;;;0.40;0.40;;;25.90;99.80;;;;;;4991561;28;20077;-75
2022/07/08 09:22:23;;;;;;;0.50;0.40;;;26.00;99.40;;;;;;4990919;28;20057;-74
2022/07/08 09:24:49;;;;;;;0.40;0.40;;;26.00;99.40;;;;;;4990303;28;20040;-76
2022/07/08 09:27:16;;;;;;;0.43;0.43;;;26.10;98.50;;;;;;4992045;28;20027;-76
2022/07/08 09:29:59;;;;;;;1.77;0.43;;;26.10;97.70;;;;;;4991424;28;20027;-76
2022/07/08 09:32:25;;;;;;;0.50;0.50;;;26.20;98.40;;;;;;4993508;28;20038;-76
2022/07/08 09:34:51;;;;;;;0.52;0.40;;;26.20;98.30;;;;;;4990114;28;20489;-76
2022/07/08 09:37:19;;;;;;;0.35;0.35;;;26.30;97.00;;;;;;4991863;28;20034;-77
2022/07/08 09:39:46;;;;;;;0.52;0.50;;;26.30;98.10;;;;;;4991328;28;20026;-76
2022/07/08 09:42:14;;;;;;;0.35;0.35;;;26.30;97.90;;;;;;4993252;28;20026;-76
2022/07/08 09:44:41;;;;;;;1.10;0.35;;;26.30;96.50;;;;;;4991621;28;20022;-76
2022/07/08 09:47:12;;;;;;;0.50;0.50;;;26.30;96.70;;;;;;4991342;28;20173;-76
2022/07/08 09:49:45;;;;;;;0.43;0.43;;;26.40;97.20;;;;;;4991630;28;20057;-77
2022/07/08 09:52:19;;;;;;;0.50;0.50;;;26.50;97.40;;;;;;4991343;28;20033;-76
2022/07/08 09:54:45;;;;;;;0.82;0.40;;;26.60;97.00;;;;;;4989969;28;20035;-77
2022/07/08 09:57:13;;;;;;;0.63;0.50;;;26.70;96.70;;;;;;4991716;28;20029;-76
2022/07/08 09:59:39;;;;;;;0.40;0.40;;;26.80;96.80;;;;;;4990058;28;20033;-76
2022/07/08 10:02:05;;;;;;;0.35;0.35;;;26.90;96.50;;;;;;4992644;28;20042;-76
2022/07/08 10:04:31;;;;;;;1.60;0.40;;;26.90;95.40;;;;;;4991445;28;20041;-76
2022/07/08 10:06:58;;;;;;;0.73;0.50;;;27.00;95.80;;;;;;4989719;28;20034;-76
2022/07/08 10:09:25;;;;;;;0.40;0.40;;;27.20;96.50;;;;;;4991257;28;20038;-77
2022/07/08 10:11:52;;;;;;;0.35;0.35;;;27.60;95.40;;;;;;4993765;28;20142;-76
2022/07/08 10:14:19;;;;;;;1.35;0.68;;;28.00;96.80;;;;;;4991403;28;20031;-74
2022/07/08 10:16:49;;;;;;;1.33;0.68;;;28.20;98.20;;;;;;4990884;28;20026;-75
2022/07/08 10:19:45;;;;;;;0.98;0.68;;;28.00;98.20;;;;;;4977884;28;20038;-76
2022/07/08 10:22:13;;;;;;;0.60;0.60;;;27.60;99.90;;;;;;4985517;28;20126;-77
2022/07/08 10:24:42;;;;;;;0.88;0.60;;;27.30;99.90;;;;;;4991094;28;20038;-75
2022/07/08 10:27:10;;;;;;;0.77;0.70;;;27.00;99.90;;;;;;4990905;28;20066;-76
2022/07/08 10:29:39;;;;;;;0.68;0.68;;;26.80;99.90;;;;;;4989930;28;20029;-76
2022/07/08 10:32:23;;;;;;;0.77;0.70;;;26.70;99.90;;;;;;4993624;28;20023;-74
2022/07/08 10:35:08;;;;;;;2.33;0.73;;;26.40;99.90;;;;;;4990751;28;20025;-73
2022/07/08 10:38:09;;;;;;;0.88;0.88;;;26.00;99.90;;;;;;4989522;28;20547;-73
2022/07/08 10:40:48;;;;;;;1.95;0.80;;;25.80;99.90;;;;;;5029701;28;20427;-74
2022/07/08 10:43:25;;;;;;;0.63;0.63;;;25.70;99.90;;;;;;4987541;28;20035;-72
2022/07/08 10:46:06;;;;;;;1.38;0.90;;;25.60;99.90;;;;;;4988932;28;20034;-73
2022/07/08 10:48:41;;;;;;;0.70;0.70;;;25.50;99.90;;;;;;4991158;28;20030;-73
2022/07/08 10:51:19;;;;;;;1.15;0.80;;;25.70;99.90;;;;;;4990286;28;20026;-73
2022/07/08 10:53:52;;;;;;;1.95;0.80;;;25.80;99.90;;;;;;4989695;28;20417;-73
2022/07/08 10:56:36;;;;;;;;;;;25.70;99.90;;;;;;4989767;28;20037;-72
2022/07/08 10:59:19;;;;;;;2.40;0.70;;;25.80;99.90;;;;;;4991270;28;19932;-76
2022/07/08 11:02:06;;;;;;;2.03;0.98;;;25.90;99.90;;;;;;4996690;28;20459;-74
2022/07/08 11:04:35;;;;;;;3.30;0.90;;;26.10;99.90;;;;;;4982043;28;20030;-74
2022/07/08 11:07:28;;;;;;;0.80;0.80;;;26.30;99.90;;;;;;4992381;28;20081;-75
2022/07/08 11:09:57;;;;;;;4.95;1.05;;;26.50;99.90;;;;;;4993956;28;20053;-74
2022/07/08 11:12:25;;;;;;;0.77;0.70;;;26.40;99.90;;;;;;4995380;28;20536;-75
2022/07/08 11:14:53;;;;;;;1.40;0.85;;;26.40;99.90;;;;;;4993685;28;20038;-75
2022/07/08 11:17:33;;;;;;;0.70;0.70;;;26.50;99.90;;;;;;4993035;28;20018;-75
2022/07/08 11:20:03;;;;;;;3.53;0.80;;;26.60;99.90;;;;;;4993734;28;20038;-75
2022/07/08 11:22:34;;;;;;;4.78;1.10;;;26.60;99.90;;;;;;4994530;28;20474;-75
2022/07/08 11:25:00;;;;;;;1.25;0.70;;;26.50;99.90;;;;;;4993673;28;20105;-75
2022/07/08 11:27:28;;;;;;;1.08;0.80;;;26.50;99.90;;;;;;4994178;28;20046;-75
2022/07/08 11:29:55;;;;;;;0.75;0.75;;;26.80;99.90;;;;;;4993719;28;20037;-76
2022/07/08 11:32:22;;;;;;;1.25;0.65;;;26.70;99.90;;;;;;4997242;28;20504;-75
2022/07/08 11:34:49;;;;;;;0.73;0.73;;;26.60;99.90;;;;;;4993517;28;20481;-75
2022/07/08 11:37:15;;;;;;;0.65;0.60;;;26.60;99.90;;;;;;4992729;28;20063;-75
2022/07/08 11:39:44;;;;;;;2.55;0.70;;;26.40;99.90;;;;;;4993657;28;20027;-79
2022/07/08 11:42:12;;;;;;;3.55;0.80;;;26.30;99.90;;;;;;4996271;28;20448;-74
2022/07/08 11:44:38;;;;;;;2.25;1.40;;;26.30;99.90;;;;;;4992529;28;20130;-75
2022/07/08 11:47:04;;;;;;;0.80;0.80;;;26.30;99.90;;;;;;4992035;28;20125;-76
2022/07/08 11:49:31;;;;;;;3.13;0.80;;;26.30;99.90;;;;;;4993488;28;20029;-75
2022/07/08 11:51:58;;;;;;;3.33;0.95;;;26.40;99.90;;;;;;4992083;28;20066;-75
2022/07/08 11:54:28;;;;;;;0.55;0.55;;;26.40;99.90;;;;;;4993550;28;20031;-75
2022/07/08 11:56:56;;;;;;;0.70;0.70;;;26.40;99.90;;;;;;4993256;28;20072;-75
2022/07/08 11:59:23;;;;;;;3.35;0.80;;;26.60;99.90;;;;;;4993473;28;20563;-76
2022/07/08 12:01:51;;;;;;;1.58;0.70;;;26.90;99.90;;;;;;4995741;28;20134;-75
2022/07/08 12:04:17;;;;;;;1.08;0.80;;;27.10;99.90;;;;;;4992001;28;20027;-76
2022/07/08 12:06:58;;;;;;;1.10;0.88;;;27.30;99.90;;;;;;4993118;28;20073;-77
2022/07/08 12:09:25;;;;;;;7.72;0.80;;;27.20;99.90;;;;;;4980937;28;20031;-75
2022/07/08 12:11:54;;;;;;;1.98;0.80;;;27.20;99.90;;;;;;4994490;28;20179;-75
2022/07/08 12:14:22;;;;;;;0.68;0.60;;;27.10;99.90;;;;;;4991977;28;20485;-75
2022/07/08 12:16:49;;;;;;;1.75;0.88;;;27.20;99.90;;;;;;4992707;28;20049;-75
2022/07/08 12:19:27;;;;;;;4.65;0.90;;;27.30;99.90;;;;;;4979739;28;20026;-76
2022/07/08 12:21:54;;;;;;;1.70;0.93;;;28.70;99.90;;;;;;4991631;28;20519;-75
2022/07/08 12:24:27;;;;;;;2.45;0.90;;;30.70;99.90;;;;;;4991773;28;20485;-75
2022/07/08 12:26:57;;;;;;;3.22;0.50;;;32.40;98.50;;;;;;4991487;28;20114;-75
2022/07/08 12:29:31;;;;;;;1.15;0.70;;;33.10;97.20;;;;;;4992863;28;20370;-75
2022/07/08 12:31:56;;;;;;;2.95;1.00;;;34.30;93.70;;;;;;4993908;28;20029;-77
2022/07/08 12:34:24;;;;;;;3.22;0.77;;;34.20;93.70;;;;;;4991596;28;20026;-77
2022/07/08 12:36:50;;;;;;;1.33;0.80;;;34.30;94.20;;;;;;4992559;28;20023;-75
2022/07/08 12:39:21;;;;;;;2.58;1.15;;;34.70;94.30;;;;;;4991386;28;20053;-76
2022/07/08 12:42:04;;;;;;;2.70;0.80;;;35.00;95.10;;;;;;4993981;28;20112;-75
2022/07/08 12:44:40;;;;;;;1.63;1.08;;;36.10;92.30;;;;;;4981237;28;20029;-74
2022/07/08 12:47:10;;;;;;;0.82;0.75;;;36.20;91.70;;;;;;4992413;28;20033;-75
2022/07/08 12:49:38;;;;;;;1.08;0.70;;;35.90;90.70;;;;;;4992665;28;20436;-76
2022/07/08 12:52:05;;;;;;;1.90;0.70;;;36.40;90.60;;;;;;4992478;28;20026;-78
2022/07/08 12:54:31;;;;;;;4.47;0.90;;;36.00;90.90;;;;;;4996243;28;20101;-85
2022/07/08 12:56:58;;;;;;;1.40;0.45;;;36.10;89.90;;;;;;4992463;28;20030;-77